Time;durP1;ratioP1;P1;durP2;ratioP2;P2;SDS_P1;SDS_P2;PMS_P1;PMS_P2;Temp;Humidity;BMP_temperature;BMP_pressure;BME280_temperature;BME280_humidity;BME280_pressure;Samples;Min_cycle;Max_cycle;Signal;HPM_P1;HPM_P2
2021/07/30 00:02:12;;;;;;;;;;;17.50;94.80;;;;;;5092287;28;19915;-89
2021/07/30 00:04:38;;;;;;;;;;;17.50;94.90;;;;;;5092259;28;20170;-88
2021/07/30 00:07:03;;;;;;;;;;;17.50;95.00;;;;;;5092002;28;20320;-88
2021/07/30 00:09:29;;;;;;;;;;;17.50;95.10;;;;;;5091413;28;19947;-89
2021/07/30 00:11:55;;;;;;;;;;;17.50;95.20;;;;;;5092407;28;19995;-89
2021/07/30 00:14:20;;;;;;;;;;;17.50;95.30;;;;;;5110369;28;19912;-89
2021/07/30 00:16:46;;;;;;;;;;;17.50;95.40;;;;;;5080049;28;19912;-89
2021/07/30 00:19:11;;;;;;;;;;;17.50;95.40;;;;;;5077790;28;20280;-88
2021/07/30 00:21:37;;;;;;;;;;;17.50;95.50;;;;;;5078636;28;19908;-89
2021/07/30 00:24:02;;;;;;;;;;;17.50;95.50;;;;;;5078774;28;19912;-89
2021/07/30 00:26:28;;;;;;;;;;;17.50;95.60;;;;;;5078673;28;20295;-88
2021/07/30 00:28:53;;;;;;;;;;;17.50;95.50;;;;;;5095542;28;19912;-88
2021/07/30 00:31:19;;;;;;;;;;;17.50;95.60;;;;;;5096190;28;19908;-88
2021/07/30 00:33:44;;;;;;;;;;;17.50;95.60;;;;;;5077918;28;19913;-88
2021/07/30 00:36:10;;;;;;;;;;;17.60;95.60;;;;;;5077717;28;19909;-88
2021/07/30 00:38:35;;;;;;;;;;;17.60;95.60;;;;;;5077853;28;19916;-88
2021/07/30 00:41:01;;;;;;;;;;;17.60;95.60;;;;;;5077461;28;19912;-88
2021/07/30 00:43:26;;;;;;;;;;;17.60;95.60;;;;;;5095786;28;20383;-89
2021/07/30 00:45:53;;;;;;;;;;;17.60;95.60;;;;;;5077563;28;19931;-88
2021/07/30 00:48:20;;;;;;;;;;;17.60;95.60;;;;;;5077595;28;20321;-89
2021/07/30 00:50:46;;;;;;;;;;;17.70;95.60;;;;;;5077135;28;19957;-89
2021/07/30 00:53:11;;;;;;;;;;;17.70;95.60;;;;;;5077727;28;20008;-88
2021/07/30 00:55:37;;;;;;;;;;;17.70;95.70;;;;;;5077835;28;19908;-89
2021/07/30 00:58:03;;;;;;;;;;;17.70;95.60;;;;;;5095578;28;20388;-89
2021/07/30 01:00:29;;;;;;;;;;;17.70;95.70;;;;;;5077086;28;19931;-89
2021/07/30 01:02:54;;;;;;;;;;;17.70;95.60;;;;;;5096101;28;19908;-89
2021/07/30 01:05:20;;;;;;;;;;;17.80;95.60;;;;;;5095983;28;19956;-89
2021/07/30 01:07:46;;;;;;;;;;;17.80;95.60;;;;;;5077478;28;19912;-88
2021/07/30 01:10:11;;;;;;;;;;;17.80;95.60;;;;;;5076742;28;19908;-89
2021/07/30 01:12:37;;;;;;;;;;;17.80;96.00;;;;;;5077361;28;19908;-89
2021/07/30 01:15:04;;;;;;;;;;;17.80;95.70;;;;;;5077619;28;20302;-89
2021/07/30 01:17:29;;;;;;;;;;;17.80;95.80;;;;;;5095365;28;19961;-89
2021/07/30 01:19:55;;;;;;;;;;;17.80;95.80;;;;;;5076516;28;19916;-89
2021/07/30 01:22:22;;;;;;;;;;;17.80;95.90;;;;;;5076966;28;20394;-89
2021/07/30 01:24:49;;;;;;;;;;;17.80;95.90;;;;;;5095196;28;19912;-89
2021/07/30 01:27:14;;;;;;;;;;;17.80;95.90;;;;;;5075853;28;19908;-88
2021/07/30 01:29:40;;;;;;;;;;;17.80;96.00;;;;;;5076231;28;20330;-89
2021/07/30 01:32:06;;;;;;;;;;;17.80;95.90;;;;;;5076385;28;19909;-88
2021/07/30 01:34:31;;;;;;;;;;;17.80;96.00;;;;;;5076726;28;19915;-89
2021/07/30 01:36:57;;;;;;;;;;;17.80;95.90;;;;;;5076484;28;20006;-89
2021/07/30 01:39:22;;;;;;;;;;;17.80;95.90;;;;;;5094082;28;20387;-89
2021/07/30 01:41:48;;;;;;;;;;;17.80;96.00;;;;;;5094838;28;19919;-89
2021/07/30 01:44:14;;;;;;;;;;;17.80;96.00;;;;;;5076830;28;19912;-89
2021/07/30 01:46:40;;;;;;;;;;;17.80;96.00;;;;;;5094839;28;19908;-89
2021/07/30 01:49:05;;;;;;;;;;;17.80;96.00;;;;;;5075932;28;20402;-89
2021/07/30 01:51:31;;;;;;;;;;;17.80;96.10;;;;;;5094699;28;19908;-89
2021/07/30 01:53:56;;;;;;;;;;;17.80;96.10;;;;;;5094406;28;19961;-89
2021/07/30 01:56:22;;;;;;;;;;;17.80;96.20;;;;;;5076440;28;19912;-89
2021/07/30 01:58:47;;;;;;;;;;;17.80;96.20;;;;;;5075939;28;19912;-89
2021/07/30 02:01:13;;;;;;;;;;;17.80;96.30;;;;;;5094255;28;20411;-89
2021/07/30 02:03:38;;;;;;;;;;;17.80;96.30;;;;;;5076316;28;19912;-89
2021/07/30 02:06:08;;;;;;;;;;;17.80;96.30;;;;;;5075926;28;19916;-89
2021/07/30 02:08:34;;;;;;;;;;;17.80;96.30;;;;;;5075837;28;19908;-88
2021/07/30 02:11:00;;;;;;;;;;;17.80;96.30;;;;;;5093386;28;20257;-89
2021/07/30 02:16:09;;;;;;;;;;;17.80;96.30;;;;;;5094479;28;19935;-89
2021/07/30 02:18:35;;;;;;;;;;;17.80;96.40;;;;;;5075507;28;19915;-89
2021/07/30 02:21:00;;;;;;;;;;;17.80;96.40;;;;;;5075366;28;19908;-89
2021/07/30 02:23:26;;;;;;;;;;;17.80;96.50;;;;;;5075520;28;19919;-89
2021/07/30 02:25:51;;;;;;;;;;;17.80;96.50;;;;;;5075820;28;20387;-88
2021/07/30 02:28:17;;;;;;;;;;;17.80;96.50;;;;;;5075675;28;20253;-88
2021/07/30 02:30:42;;;;;;;;;;;17.70;96.60;;;;;;5075305;28;20007;-89
2021/07/30 02:33:08;;;;;;;;;;;17.80;96.60;;;;;;5075907;28;19908;-88
2021/07/30 02:35:33;;;;;;;;;;;17.70;96.60;;;;;;5093899;28;19908;-88
2021/07/30 02:37:59;;;;;;;;;;;17.70;96.60;;;;;;5093624;28;19908;-89
2021/07/30 02:40:24;;;;;;;;;;;17.70;96.70;;;;;;5075027;28;19908;-88
2021/07/30 02:42:50;;;;;;;;;;;17.60;96.70;;;;;;5075562;28;19908;-88
2021/07/30 02:45:15;;;;;;;;;;;17.60;96.80;;;;;;5093294;28;19966;-89
2021/07/30 02:47:41;;;;;;;;;;;17.60;96.90;;;;;;5074656;28;20288;-89
2021/07/30 02:50:06;;;;;;;;;;;17.50;96.90;;;;;;5074646;28;19920;-88
2021/07/30 02:52:32;;;;;;;;;;;17.50;97.00;;;;;;5075605;28;19908;-89
2021/07/30 02:54:57;;;;;;;;;;;17.50;97.10;;;;;;5075933;28;19994;-89
2021/07/30 02:57:23;;;;;;;;;;;17.50;97.10;;;;;;5075748;28;19912;-89
2021/07/30 02:59:48;;;;;;;;;;;17.50;97.20;;;;;;5092853;28;19995;-89
2021/07/30 03:02:14;;;;;;;;;;;17.40;97.20;;;;;;5075349;28;19909;-89
2021/07/30 03:04:40;;;;;;;;;;;17.40;97.30;;;;;;5075467;28;19961;-89
2021/07/30 03:07:06;;;;;;;;;;;17.40;97.40;;;;;;5075372;28;19915;-88
2021/07/30 03:09:31;;;;;;;;;;;17.30;97.40;;;;;;5074804;28;19916;-89
2021/07/30 03:11:57;;;;;;;;;;;17.40;97.50;;;;;;5075548;28;19908;-90
2021/07/30 03:14:22;;;;;;;;;;;17.40;97.50;;;;;;5075515;28;20451;-89
2021/07/30 03:16:48;;;;;;;;;;;17.40;97.50;;;;;;5075781;28;19956;-89
2021/07/30 03:19:13;;;;;;;;;;;17.30;97.50;;;;;;5075022;28;19920;-88
2021/07/30 03:21:39;;;;;;;;;;;17.30;97.60;;;;;;5075254;28;19908;-88
2021/07/30 03:24:05;;;;;;;;;;;17.30;97.60;;;;;;5075060;28;19919;-89
2021/07/30 03:26:32;;;;;;;;;;;17.30;97.70;;;;;;5093637;28;19909;-89
2021/07/30 03:28:57;;;;;;;;;;;17.30;97.70;;;;;;5093016;28;19916;-89
2021/07/30 03:31:23;;;;;;;;;;;17.30;97.70;;;;;;5075629;28;19908;-89
2021/07/30 03:33:48;;;;;;;;;;;17.30;97.70;;;;;;5093776;28;19916;-89
2021/07/30 03:36:14;;;;;;;;;;;17.30;97.80;;;;;;5074952;28;19908;-89
2021/07/30 03:38:39;;;;;;;;;;;17.30;97.80;;;;;;5075220;28;19951;-89
2021/07/30 03:41:05;;;;;;;;;;;17.30;97.80;;;;;;5093100;28;19908;-89
2021/07/30 03:43:31;;;;;;;;;;;17.20;97.80;;;;;;5093304;28;19908;-88
2021/07/30 03:45:56;;;;;;;;;;;17.30;97.80;;;;;;5076043;28;19919;-88
2021/07/30 03:48:22;;;;;;;;;;;17.20;97.90;;;;;;5093137;28;19908;-89
2021/07/30 03:50:47;;;;;;;;;;;17.20;98.00;;;;;;5075799;28;19908;-89
2021/07/30 03:53:13;;;;;;;;;;;17.20;98.00;;;;;;5097216;28;19915;-88
2021/07/30 03:55:38;;;;;;;;;;;17.20;97.90;;;;;;5078594;28;19915;-88
2021/07/30 03:58:04;;;;;;;;;;;17.10;98.00;;;;;;5078756;28;19959;-88
2021/07/30 04:00:29;;;;;;;;;;;17.10;97.90;;;;;;5078570;28;19953;-89
2021/07/30 04:02:55;;;;;;;;;;;17.20;98.00;;;;;;5079700;28;19961;-88
2021/07/30 04:05:20;;;;;;;;;;;17.20;98.00;;;;;;5096740;28;19913;-88
2021/07/30 04:07:46;;;;;;;;;;;17.10;98.00;;;;;;5078839;28;19919;-88
2021/07/30 04:10:12;;;;;;;;;;;17.10;98.00;;;;;;5099604;28;19915;-88
2021/07/30 04:12:37;;;;;;;;;;;17.10;98.10;;;;;;5080608;28;19908;-88
2021/07/30 04:15:03;;;;;;;;;;;17.10;98.10;;;;;;5080564;28;19908;-88
2021/07/30 04:17:28;;;;;;;;;;;17.10;98.10;;;;;;5096893;28;19919;-88
2021/07/30 04:19:54;;;;;;;;;;;17.10;98.20;;;;;;5077621;28;20003;-88
2021/07/30 04:22:19;;;;;;;;;;;17.10;98.20;;;;;;5078602;28;20012;-88
2021/07/30 04:24:45;;;;;;;;;;;17.10;98.30;;;;;;5078307;28;19942;-88
2021/07/30 04:27:10;;;;;;;;;;;17.10;98.20;;;;;;5096836;28;19923;-89
2021/07/30 04:29:40;;;;;;;;;;;17.10;98.30;;;;;;5077906;28;19927;-89
2021/07/30 04:32:06;;;;;;;;;;;17.00;98.30;;;;;;5077909;28;20365;-89
2021/07/30 04:34:31;;;;;;;;;;;17.00;98.40;;;;;;5096234;28;19913;-88
2021/07/30 04:36:57;;;;;;;;;;;17.00;98.40;;;;;;5077754;28;19916;-88
2021/07/30 04:39:22;;;;;;;;;;;17.00;98.40;;;;;;5077569;28;19916;-88
2021/07/30 04:41:48;;;;;;;;;;;17.00;98.40;;;;;;5077896;28;20344;-89
2021/07/30 04:44:13;;;;;;;;;;;17.00;98.50;;;;;;5077840;28;19912;-88
2021/07/30 04:46:39;;;;;;;;;;;17.00;98.50;;;;;;5077699;28;20334;-89
2021/07/30 04:49:04;;;;;;;;;;;17.00;98.80;;;;;;5095333;28;19912;-88
2021/07/30 04:51:30;;;;;;;;;;;17.00;98.50;;;;;;5096214;28;19916;-89
2021/07/30 04:53:56;;;;;;;;;;;17.00;98.40;;;;;;5077842;28;19912;-89
2021/07/30 04:56:21;;;;;;;;;;;17.00;98.40;;;;;;5096063;28;19919;-89
2021/07/30 04:58:47;;;;;;;;;;;17.10;98.40;;;;;;5095412;28;19908;-89
2021/07/30 05:01:13;;;;;;;;;;;17.10;98.50;;;;;;5077352;28;20265;-89
2021/07/30 05:03:38;;;;;;;;;;;17.10;98.40;;;;;;5095870;28;19908;-88
2021/07/30 05:06:11;;;;;;;;;;;17.10;98.40;;;;;;5076431;28;20332;-88
2021/07/30 05:08:36;;;;;;;;;;;17.10;98.30;;;;;;5076408;28;20372;-89
2021/07/30 05:11:02;;;;;;;;;;;17.10;98.30;;;;;;5094002;28;19915;-88
2021/07/30 05:13:27;;;;;;;;;;;17.10;98.30;;;;;;5077102;28;19934;-88
2021/07/30 05:15:53;;;;;;;;;;;17.10;98.30;;;;;;5076494;28;19908;-89
2021/07/30 05:18:18;;;;;;;;;;;17.10;98.40;;;;;;5076612;28;19915;-88
2021/07/30 05:20:44;;;;;;;;;;;17.10;98.30;;;;;;5093816;28;20275;-89
2021/07/30 05:23:09;;;;;;;;;;;17.20;98.30;;;;;;5094202;28;19916;-88
2021/07/30 05:25:35;;;;;;;;;;;17.20;98.20;;;;;;5076166;28;20439;-88
2021/07/30 05:28:01;;;;;;;;;;;17.20;98.20;;;;;;5076833;28;20356;-88
2021/07/30 05:30:26;;;;;;;;;;;17.30;98.20;;;;;;5094041;28;19962;-89
2021/07/30 05:32:51;;;;;;;;;;;17.30;98.20;;;;;;5075994;28;20003;-88
2021/07/30 05:35:17;;;;;;;;;;;17.40;98.20;;;;;;5076478;28;19908;-88
2021/07/30 05:37:42;;;;;;;;;;;17.40;98.20;;;;;;5076735;28;19961;-88
2021/07/30 05:40:08;;;;;;;;;;;17.40;98.20;;;;;;5094382;28;20391;-89
2021/07/30 05:42:34;;;;;;;;;;;17.40;98.20;;;;;;5094467;28;19908;-88
2021/07/30 05:44:59;;;;;;;;;;;17.40;98.20;;;;;;5076406;28;20325;-89
2021/07/30 05:47:25;;;;;;;;;;;17.50;98.20;;;;;;5076119;28;19908;-88
2021/07/30 05:49:50;;;;;;;;;;;17.50;98.10;;;;;;5076109;28;19915;-89
2021/07/30 05:52:16;;;;;;;;;;;17.50;98.00;;;;;;5077457;28;19912;-89
2021/07/30 05:54:41;;;;;;;;;;;17.50;98.00;;;;;;5076658;28;19908;-89
2021/07/30 05:57:07;;;;;;;;;;;17.50;98.00;;;;;;5076809;28;19908;-88
2021/07/30 05:59:32;;;;;;;;;;;17.50;98.00;;;;;;5075996;28;19974;-89
2021/07/30 06:01:58;;;;;;;;;;;17.50;97.90;;;;;;5076405;28;19912;-89
2021/07/30 06:04:23;;;;;;;;;;;17.60;97.90;;;;;;5095602;28;19923;-89
2021/07/30 06:06:49;;;;;;;;;;;17.60;97.80;;;;;;5077366;28;19908;-88
2021/07/30 06:09:15;;;;;;;;;;;17.60;97.70;;;;;;5075469;28;20292;-90
2021/07/30 06:11:40;;;;;;;;;;;17.70;97.70;;;;;;5075646;28;19908;-90
2021/07/30 06:14:06;;;;;;;;;;;17.70;97.50;;;;;;5075148;28;19961;-89
2021/07/30 06:16:31;;;;;;;;;;;17.80;97.40;;;;;;5075725;28;19908;-89
2021/07/30 06:18:57;;;;;;;;;;;17.80;97.30;;;;;;5076652;28;19916;-89
2021/07/30 06:21:22;;;;;;;;;;;17.90;97.30;;;;;;5079215;28;19908;-88
2021/07/30 06:23:48;;;;;;;;;;;17.90;97.30;;;;;;5097012;28;19912;-88
2021/07/30 06:26:14;;;;;;;;;;;18.00;97.20;;;;;;5078217;28;19930;-88
2021/07/30 06:28:39;;;;;;;;;;;18.00;97.20;;;;;;5078391;28;19991;-88
2021/07/30 06:31:05;;;;;;;;;;;18.10;97.20;;;;;;5096935;28;19912;-89
2021/07/30 06:33:30;;;;;;;;;;;18.10;97.20;;;;;;5076450;28;19908;-88
2021/07/30 06:35:56;;;;;;;;;;;18.20;97.00;;;;;;5093496;28;19918;-88
2021/07/30 06:38:22;;;;;;;;;;;18.20;96.70;;;;;;5075043;28;19908;-89
2021/07/30 06:40:48;;;;;;;;;;;18.30;96.70;;;;;;5093629;28;19908;-89
2021/07/30 06:43:13;;;;;;;;;;;18.30;96.70;;;;;;5093604;28;20021;-89
2021/07/30 06:45:39;;;;;;;;;;;18.40;96.80;;;;;;5075912;28;19912;-89
2021/07/30 06:48:05;;;;;;;;;;;18.40;96.60;;;;;;5075364;28;19908;-89
2021/07/30 06:50:30;;;;;;;;;;;18.50;96.10;;;;;;5075214;28;20423;-88
2021/07/30 06:52:56;;;;;;;;;;;18.50;95.80;;;;;;5093887;28;19916;-89
2021/07/30 06:55:21;;;;;;;;;;;18.60;96.00;;;;;;5075943;28;19915;-89
2021/07/30 06:57:47;;;;;;;;;;;18.60;95.90;;;;;;5092628;28;20352;-89
2021/07/30 07:00:13;;;;;;;;;;;18.60;95.90;;;;;;5074213;28;19908;-89
2021/07/30 07:02:39;;;;;;;;;;;18.60;95.90;;;;;;5074560;28;19919;-90
2021/07/30 07:05:05;;;;;;;;;;;18.60;95.70;;;;;;5074709;28;19912;-89
2021/07/30 07:07:30;;;;;;;;;;;18.60;95.50;;;;;;5092994;28;20097;-89
2021/07/30 07:09:56;;;;;;;;;;;18.60;95.30;;;;;;5073923;28;19954;-89
2021/07/30 07:12:21;;;;;;;;;;;18.60;95.20;;;;;;5092580;28;20380;-89
2021/07/30 07:14:47;;;;;;;;;;;18.70;95.20;;;;;;5092594;28;20006;-89
2021/07/30 07:17:15;;;;;;;;;;;18.70;95.10;;;;;;5074481;28;20218;-89
2021/07/30 07:19:43;;;;;;;;;;;18.70;95.10;;;;;;5073808;28;19916;-89
2021/07/30 07:22:09;;;;;;;;;;;18.80;95.00;;;;;;5096125;28;19908;-89
2021/07/30 07:24:34;;;;;;;;;;;18.80;94.90;;;;;;5094136;28;20380;-89
2021/07/30 07:27:00;;;;;;;;;;;18.90;94.80;;;;;;5077920;28;19908;-88
2021/07/30 07:29:27;;;;;;;;;;;19.00;94.70;;;;;;5096665;28;20304;-89
2021/07/30 07:31:52;;;;;;;;;;;19.00;94.70;;;;;;5096593;28;19908;-89
2021/07/30 07:34:18;;;;;;;;;;;19.10;94.80;;;;;;5078466;28;19908;-89
2021/07/30 07:36:43;;;;;;;;;;;19.20;94.60;;;;;;5078453;28;19954;-88
2021/07/30 07:39:09;;;;;;;;;;;19.20;94.50;;;;;;5078185;28;19908;-88
2021/07/30 07:41:35;;;;;;;;;;;19.20;94.40;;;;;;5078498;28;20003;-89
2021/07/30 07:44:00;;;;;;;;;;;19.30;94.40;;;;;;5078090;28;19977;-88
2021/07/30 07:46:26;;;;;;;;;;;19.30;94.10;;;;;;5078275;28;19916;-89
2021/07/30 07:48:52;;;;;;;;;;;19.30;94.30;;;;;;5096301;28;19916;-88
2021/07/30 07:51:17;;;;;;;;;;;19.40;94.40;;;;;;5078171;28;19915;-89
2021/07/30 07:53:43;;;;;;;;;;;19.50;94.30;;;;;;5078141;28;19909;-89
2021/07/30 07:56:09;;;;;;;;;;;19.50;94.00;;;;;;5077894;28;19915;-88
2021/07/30 07:58:35;;;;;;;;;;;19.70;94.00;;;;;;5096048;28;19908;-89
2021/07/30 08:01:00;;;;;;;;;;;19.70;93.60;;;;;;5077862;28;19915;-89
2021/07/30 08:03:26;;;;;;;;;;;19.70;93.40;;;;;;5096048;28;19950;-89
2021/07/30 08:05:52;;;;;;;;;;;19.70;93.30;;;;;;5077876;28;19912;-89
2021/07/30 08:08:17;;;;;;;;;;;19.80;93.50;;;;;;5077520;28;19951;-89
2021/07/30 08:10:43;;;;;;;;;;;19.80;93.10;;;;;;5077573;28;19908;-88
2021/07/30 08:13:09;;;;;;;;;;;19.80;92.90;;;;;;5077602;28;19962;-89
2021/07/30 08:15:34;;;;;;;;;;;19.90;93.00;;;;;;5077712;28;19995;-89
2021/07/30 08:18:00;;;;;;;;;;;19.90;92.90;;;;;;5077478;28;20315;-88
2021/07/30 08:20:25;;;;;;;;;;;19.90;92.70;;;;;;5077903;28;19912;-89
2021/07/30 08:22:51;;;;;;;;;;;19.90;92.60;;;;;;5077680;28;19908;-89
2021/07/30 08:25:16;;;;;;;;;;;19.90;92.60;;;;;;5077885;28;20006;-89
2021/07/30 08:27:42;;;;;;;;;;;19.90;92.30;;;;;;5095808;28;20374;-89
2021/07/30 08:30:08;;;;;;;;;;;20.00;92.30;;;;;;5077713;28;19908;-89
2021/07/30 08:32:33;;;;;;;;;;;20.00;92.50;;;;;;5077628;28;19912;-90
2021/07/30 08:34:59;;;;;;;;;;;20.00;92.70;;;;;;5095596;28;20403;-89
2021/07/30 08:37:35;;;;;;;;;;;20.10;92.80;;;;;;5076827;28;19914;-89
2021/07/30 08:40:01;;;;;;;;;;;20.10;92.70;;;;;;5093997;28;19909;-89
2021/07/30 08:42:27;;;;;;;;;;;20.20;92.40;;;;;;5077121;28;19912;-89
2021/07/30 08:44:52;;;;;;;;;;;20.20;91.90;;;;;;5095160;28;20277;-89
2021/07/30 08:47:20;;;;;;;;;;;20.30;91.70;;;;;;5077156;28;19915;-89
2021/07/30 08:49:45;;;;;;;;;;;20.40;91.50;;;;;;5076930;28;20322;-89
2021/07/30 08:52:11;;;;;;;;;;;20.40;91.70;;;;;;5076957;28;19953;-88
2021/07/30 08:54:38;;;;;;;;;;;20.40;90.70;;;;;;5076968;28;19913;-89
2021/07/30 08:57:07;;;;;;;;;;;20.50;90.30;;;;;;5076995;28;19908;-89
2021/07/30 08:59:33;;;;;;;;;;;20.50;90.20;;;;;;5076574;28;19998;-89
2021/07/30 09:01:58;;;;;;;;;;;20.50;90.70;;;;;;5076821;28;19940;-88
2021/07/30 09:04:24;;;;;;;;;;;20.60;90.30;;;;;;5077356;28;19915;-90
2021/07/30 09:06:54;;;;;;;;;;;20.60;90.20;;;;;;5076673;28;19908;-90
2021/07/30 09:09:19;;;;;;;;;;;20.70;90.70;;;;;;5076052;28;20280;-90
2021/07/30 09:11:45;;;;;;;;;;;20.70;90.70;;;;;;5076348;28;19908;-90
2021/07/30 09:14:11;;;;;;;;;;;20.70;90.50;;;;;;5076268;28;19916;-90
2021/07/30 09:16:45;;;;;;;;;;;20.80;90.30;;;;;;5076486;28;19981;-88
2021/07/30 09:19:11;;;;;;;;;;;20.80;90.10;;;;;;5075690;28;19916;-88
2021/07/30 09:21:36;;;;;;;;;;;20.90;89.40;;;;;;5094336;28;19953;-88
2021/07/30 09:24:16;;;;;;;;;;;21.00;89.20;;;;;;5094279;28;19973;-88
2021/07/30 09:26:56;;;;;;;;;;;21.00;88.70;;;;;;5076179;28;19915;-90
2021/07/30 09:29:22;;;;;;;;;;;21.10;89.90;;;;;;5076459;28;19908;-88
2021/07/30 09:31:57;;;;;;;;;;;21.20;90.20;;;;;;5078026;28;20299;-88
2021/07/30 09:34:32;;;;;;;;;;;21.20;90.10;;;;;;5094882;28;19916;-88
2021/07/30 09:36:59;;;;;;;;;;;21.30;89.60;;;;;;5076975;28;20423;-88
2021/07/30 09:39:28;;;;;;;;;;;21.30;90.00;;;;;;5076165;28;19909;-88
2021/07/30 09:42:00;;;;;;;;;;;21.30;90.10;;;;;;5076344;28;19930;-88
2021/07/30 09:44:26;;;;;;;;;;;21.40;89.90;;;;;;5076300;28;19912;-88
2021/07/30 09:47:21;;;;;;;;;;;21.50;88.70;;;;;;5076024;28;19908;-88
2021/07/30 09:49:59;;;;;;;;;;;21.60;87.30;;;;;;5062085;28;19919;-88
2021/07/30 09:52:32;;;;;;;;;;;21.60;87.00;;;;;;5075928;28;19908;-88
2021/07/30 09:55:01;;;;;;;;;;;21.60;87.70;;;;;;5077210;28;19919;-88
2021/07/30 09:57:28;;;;;;;;;;;21.70;87.50;;;;;;5076020;28;20384;-88
2021/07/30 10:00:04;;;;;;;;;;;21.70;87.70;;;;;;5076054;28;19952;-88
2021/07/30 10:02:34;;;;;;;;;;;21.80;86.20;;;;;;5075778;28;19912;-88
2021/07/30 10:05:00;;;;;;;;;;;21.80;86.10;;;;;;5093869;28;19947;-88
2021/07/30 10:07:27;;;;;;;;;;;21.80;86.90;;;;;;5075781;28;19948;-88
2021/07/30 10:10:15;;;;;;;;;;;21.90;86.50;;;;;;5075784;28;20387;-88
2021/07/30 10:12:49;;;;;;;;;;;21.80;86.20;;;;;;5075607;28;19972;-88
2021/07/30 10:15:15;;;;;;;;;;;21.90;86.40;;;;;;5076394;28;20357;-88
2021/07/30 10:17:44;;;;;;;;;;;21.90;86.20;;;;;;5093882;28;19908;-88
2021/07/30 10:20:10;;;;;;;;;;;21.90;86.50;;;;;;5075329;28;19916;-88
2021/07/30 10:22:45;;;;;;;;;;;22.00;87.00;;;;;;5075479;28;19913;-88
2021/07/30 10:25:15;;;;;;;;;;;22.00;86.20;;;;;;5075420;28;19908;-88
2021/07/30 10:27:42;;;;;;;;;;;22.00;86.10;;;;;;5076347;28;19958;-88
2021/07/30 10:30:12;;;;;;;;;;;22.00;85.10;;;;;;5075427;28;19915;-88
2021/07/30 10:32:47;;;;;;;;;;;22.10;84.70;;;;;;5075229;28;20386;-88
2021/07/30 10:35:15;;;;;;;;;;;22.10;84.40;;;;;;5075216;28;20372;-88
2021/07/30 10:37:45;;;;;;;;;;;22.10;84.10;;;;;;5075514;28;19908;-88
2021/07/30 10:40:14;;;;;;;;;;;22.10;84.40;;;;;;5075274;28;20253;-88
2021/07/30 10:42:59;;;;;;;;;;;22.10;84.00;;;;;;5075194;28;19972;-88
2021/07/30 10:45:24;;;;;;;;;;;22.20;85.00;;;;;;5092447;28;19933;-88
2021/07/30 10:48:08;;;;;;;;;;;22.30;84.90;;;;;;5093145;28;19999;-88
2021/07/30 10:50:44;;;;;;;;;;;22.40;83.40;;;;;;5091803;28;19908;-88
2021/07/30 10:53:28;;;;;;;;;;;22.50;82.50;;;;;;5093221;28;19908;-87
2021/07/30 10:55:53;;;;;;;;;;;22.50;82.20;;;;;;5096852;28;19919;-88
2021/07/30 10:58:19;;;;;;;;;;;22.60;83.00;;;;;;5074933;28;20010;-88
2021/07/30 11:00:54;;;;;;;;;;;22.70;82.80;;;;;;5074820;28;19912;-88
2021/07/30 11:03:20;;;;;;;;;;;22.70;82.20;;;;;;5074997;28;19915;-88
2021/07/30 11:06:04;;;;;;;;;;;22.80;81.00;;;;;;5075020;28;19908;-88
2021/07/30 11:08:29;;;;;;;;;;;22.80;81.50;;;;;;5092245;28;20002;-88
2021/07/30 11:11:06;;;;;;;;;;;22.90;81.50;;;;;;5092942;28;19912;-88
2021/07/30 11:13:32;;;;;;;;;;;22.90;80.40;;;;;;5075036;28;19908;-88
2021/07/30 11:16:07;;;;;;;;;;;22.90;80.20;;;;;;5075019;28;20280;-88
2021/07/30 11:18:37;;;;;;;;;;;23.00;80.00;;;;;;5093649;28;20003;-88
2021/07/30 11:21:03;;;;;;;;;;;23.10;80.30;;;;;;5074584;28;20353;-88
2021/07/30 11:23:28;;;;;;;;;;;23.20;80.30;;;;;;5074803;28;19909;-88
2021/07/30 11:26:02;;;;;;;;;;;23.10;80.70;;;;;;5074797;28;19965;-88
2021/07/30 11:28:27;;;;;;;;;;;23.10;80.70;;;;;;5092924;28;19956;-88
2021/07/30 11:30:53;;;;;;;;;;;23.10;81.40;;;;;;5074635;28;19951;-88
2021/07/30 11:33:18;;;;;;;;;;;23.10;81.90;;;;;;5074606;28;19942;-88
2021/07/30 11:35:44;;;;;;;;;;;23.00;82.50;;;;;;5074513;28;20483;-88
2021/07/30 11:38:09;;;;;;;;;;;22.90;82.70;;;;;;5074395;28;19908;-88
2021/07/30 11:40:37;;;;;;;;;;;22.90;82.30;;;;;;5092849;28;19915;-88
2021/07/30 11:43:07;;;;;;;;;;;22.90;81.40;;;;;;5074292;28;20333;-89
2021/07/30 11:45:33;;;;;;;;;;;22.90;80.70;;;;;;5092609;28;19952;-88
2021/07/30 11:47:58;;;;;;;;;;;23.00;80.70;;;;;;5074068;28;20284;-88
2021/07/30 11:50:26;;;;;;;;;;;22.90;80.50;;;;;;5074522;28;19930;-88
2021/07/30 11:52:51;;;;;;;;;;;22.90;80.60;;;;;;5074489;28;19908;-88
2021/07/30 11:55:17;;;;;;;;;;;22.90;81.80;;;;;;5074300;28;19958;-87
2021/07/30 11:57:44;;;;;;;;;;;22.80;82.40;;;;;;5074378;28;19908;-88
2021/07/30 12:00:09;;;;;;;;;;;22.80;81.40;;;;;;5092434;28;19916;-88
2021/07/30 12:02:35;;;;;;;;;;;22.80;81.00;;;;;;5074363;28;20312;-88
2021/07/30 12:05:00;;;;;;;;;;;22.80;81.10;;;;;;5074391;28;20010;-88
2021/07/30 12:07:39;;;;;;;;;;;22.90;81.10;;;;;;5074418;28;19951;-88
2021/07/30 12:10:07;;;;;;;;;;;23.00;79.70;;;;;;5074013;28;19938;-88
2021/07/30 12:12:33;;;;;;;;;;;23.00;79.90;;;;;;5076462;28;20361;-88
2021/07/30 12:15:00;;;;;;;;;;;23.10;80.20;;;;;;5095907;28;19912;-88
2021/07/30 12:17:32;;;;;;;;;;;23.10;79.60;;;;;;5096127;28;19912;-88
2021/07/30 12:19:59;;;;;;;;;;;23.10;80.00;;;;;;5077907;28;19923;-88
2021/07/30 12:22:36;;;;;;;;;;;23.20;79.10;;;;;;5095911;28;20394;-88
2021/07/30 12:25:03;;;;;;;;;;;23.20;79.60;;;;;;5077724;28;20382;-88
2021/07/30 12:27:28;;;;;;;;;;;23.20;79.50;;;;;;5095805;28;19967;-88
2021/07/30 12:29:54;;;;;;;;;;;23.20;79.30;;;;;;5077489;28;19915;-88
2021/07/30 12:32:23;;;;;;;;;;;23.30;79.40;;;;;;5077653;28;19951;-88
2021/07/30 12:34:58;;;;;;;;;;;23.40;80.00;;;;;;5077798;28;19919;-88
2021/07/30 12:37:24;;;;;;;;;;;23.50;80.00;;;;;;5077192;28;20288;-88
2021/07/30 12:39:52;;;;;;;;;;;23.60;79.00;;;;;;5095257;28;20386;-88
2021/07/30 12:42:25;;;;;;;;;;;23.60;77.80;;;;;;5078583;28;19931;-87
2021/07/30 12:45:01;;;;;;;;;;;23.80;77.60;;;;;;5079805;28;19908;-88
2021/07/30 12:47:27;;;;;;;;;;;23.80;76.10;;;;;;5079741;28;19919;-89
2021/07/30 12:49:52;;;;;;;;;;;23.90;77.30;;;;;;5077139;28;19908;-88
2021/07/30 12:52:19;;;;;;;;;;;23.90;77.40;;;;;;5077352;28;19908;-88
2021/07/30 12:54:45;;;;;;;;;;;24.00;77.20;;;;;;5077041;28;19916;-88
2021/07/30 12:57:15;;;;;;;;;;;23.90;76.10;;;;;;5077209;28;19953;-87
2021/07/30 12:59:56;;;;;;;;;;;23.90;76.20;;;;;;5076561;28;19909;-88
2021/07/30 13:02:26;;;;;;;;;;;23.90;75.90;;;;;;5094872;28;19908;-88
2021/07/30 13:04:52;;;;;;;;;;;24.00;76.00;;;;;;5076823;28;19908;-88
2021/07/30 13:07:19;;;;;;;;;;;24.10;75.10;;;;;;5076975;28;19908;-88
2021/07/30 13:09:48;;;;;;;;;;;24.10;75.40;;;;;;5076475;28;19957;-88
2021/07/30 13:12:14;;;;;;;;;;;24.10;76.10;;;;;;5094814;28;19912;-88
2021/07/30 13:14:39;;;;;;;;;;;24.20;75.30;;;;;;5076719;28;19912;-88
2021/07/30 13:17:05;;;;;;;;;;;24.20;75.30;;;;;;5076662;28;19908;-88
2021/07/30 13:19:30;;;;;;;;;;;24.20;76.00;;;;;;5076270;28;19916;-88
2021/07/30 13:21:56;;;;;;;;;;;24.20;75.30;;;;;;5076491;28;19947;-88
2021/07/30 13:24:22;;;;;;;;;;;24.30;74.70;;;;;;5076721;28;19909;-88
2021/07/30 13:26:48;;;;;;;;;;;24.20;74.70;;;;;;5077101;28;19908;-88
2021/07/30 13:29:14;;;;;;;;;;;24.30;74.90;;;;;;5077233;28;19908;-88
2021/07/30 13:31:39;;;;;;;;;;;24.20;75.00;;;;;;5077078;28;19939;-88
2021/07/30 13:34:05;;;;;;;;;;;24.20;74.80;;;;;;5076200;28;19962;-88
2021/07/30 13:36:31;;;;;;;;;;;24.20;74.00;;;;;;5076338;28;19962;-88
2021/07/30 13:38:56;;;;;;;;;;;24.20;74.20;;;;;;5076069;28;19912;-88
2021/07/30 13:41:22;;;;;;;;;;;24.10;74.30;;;;;;5076075;28;19908;-88
2021/07/30 13:43:47;;;;;;;;;;;24.00;74.40;;;;;;5076166;28;19953;-88
2021/07/30 13:46:13;;;;;;;;;;;23.90;75.40;;;;;;5076018;28;19908;-88
2021/07/30 13:48:41;;;;;;;;;;;23.90;74.90;;;;;;5094311;28;19908;-87
2021/07/30 13:51:07;;;;;;;;;;;23.90;74.60;;;;;;5075961;28;19912;-88
2021/07/30 13:53:34;;;;;;;;;;;23.80;74.80;;;;;;5075937;28;19908;-88
2021/07/30 13:56:00;;;;;;;;;;;23.70;75.30;;;;;;5075842;28;20011;-88
2021/07/30 13:58:26;;;;;;;;;;;23.60;75.50;;;;;;5075955;28;19978;-88
2021/07/30 14:00:53;;;;;;;;;;;23.60;76.20;;;;;;5075861;28;19974;-88
2021/07/30 14:03:19;;;;;;;;;;;23.50;76.40;;;;;;5093943;28;19908;-87
2021/07/30 14:05:47;;;;;;;;;;;23.40;76.80;;;;;;5075925;28;19916;-88
2021/07/30 14:08:13;;;;;;;;;;;23.30;77.40;;;;;;5075649;28;20272;-88
2021/07/30 14:10:39;;;;;;;;;;;23.20;77.70;;;;;;5075718;28;19908;-88
2021/07/30 14:13:04;;;;;;;;;;;23.20;77.70;;;;;;5075461;28;19915;-88
2021/07/30 14:15:33;;;;;;;;;;;23.20;77.80;;;;;;5093544;28;19981;-88
2021/07/30 14:17:59;;;;;;;;;;;23.20;77.00;;;;;;5075160;28;19908;-88